sensor_id;sensor_type;location;lat;lon;timestamp;P1;durP1;ratioP1;P2;durP2;ratioP2
53269;SDS011;39159;45.634;9.420;2023-07-24T00:00:43;16.67;;;10.98;;
53269;SDS011;39159;45.634;9.420;2023-07-24T00:03:09;17.15;;;11.07;;
53269;SDS011;39159;45.634;9.420;2023-07-24T00:05:34;20.58;;;11.77;;
53269;SDS011;39159;45.634;9.420;2023-07-24T00:08:00;18.63;;;10.88;;
53269;SDS011;39159;45.634;9.420;2023-07-24T00:10:25;16.80;;;11.32;;
53269;SDS011;39159;45.634;9.420;2023-07-24T00:12:51;16.30;;;10.95;;
53269;SDS011;39159;45.634;9.420;2023-07-24T00:15:16;15.52;;;10.43;;
53269;SDS011;39159;45.634;9.420;2023-07-24T00:17:42;19.50;;;10.80;;
53269;SDS011;39159;45.634;9.420;2023-07-24T00:20:07;16.73;;;10.80;;
53269;SDS011;39159;45.634;9.420;2023-07-24T00:22:33;16.58;;;11.00;;
53269;SDS011;39159;45.634;9.420;2023-07-24T00:24:58;16.90;;;10.93;;
53269;SDS011;39159;45.634;9.420;2023-07-24T00:27:24;15.05;;;10.55;;
53269;SDS011;39159;45.634;9.420;2023-07-24T00:29:49;18.75;;;11.15;;
53269;SDS011;39159;45.634;9.420;2023-07-24T00:32:15;15.90;;;10.25;;
53269;SDS011;39159;45.634;9.420;2023-07-24T00:34:40;17.35;;;11.32;;
53269;SDS011;39159;45.634;9.420;2023-07-24T00:37:06;17.35;;;10.77;;
53269;SDS011;39159;45.634;9.420;2023-07-24T00:39:32;15.48;;;10.63;;
53269;SDS011;39159;45.634;9.420;2023-07-24T00:41:57;15.50;;;10.10;;
53269;SDS011;39159;45.634;9.420;2023-07-24T00:44:23;16.75;;;10.88;;
53269;SDS011;39159;45.634;9.420;2023-07-24T00:46:48;17.52;;;10.75;;
53269;SDS011;39159;45.634;9.420;2023-07-24T00:49:14;18.70;;;10.93;;
53269;SDS011;39159;45.634;9.420;2023-07-24T00:51:40;17.35;;;11.13;;
53269;SDS011;39159;45.634;9.420;2023-07-24T00:54:06;16.95;;;10.60;;
53269;SDS011;39159;45.634;9.420;2023-07-24T00:56:32;16.98;;;11.57;;
53269;SDS011;39159;45.634;9.420;2023-07-24T00:58:59;15.85;;;10.70;;
53269;SDS011;39159;45.634;9.420;2023-07-24T01:01:25;15.20;;;10.65;;
53269;SDS011;39159;45.634;9.420;2023-07-24T01:03:51;16.10;;;10.68;;
53269;SDS011;39159;45.634;9.420;2023-07-24T01:06:17;16.38;;;10.52;;
53269;SDS011;39159;45.634;9.420;2023-07-24T01:08:43;19.42;;;11.05;;
53269;SDS011;39159;45.634;9.420;2023-07-24T01:11:10;17.15;;;11.75;;
53269;SDS011;39159;45.634;9.420;2023-07-24T01:13:42;19.08;;;11.35;;
53269;SDS011;39159;45.634;9.420;2023-07-24T01:16:18;20.45;;;11.82;;
53269;SDS011;39159;45.634;9.420;2023-07-24T01:18:44;18.98;;;10.82;;
53269;SDS011;39159;45.634;9.420;2023-07-24T01:21:11;15.63;;;10.15;;
53269;SDS011;39159;45.634;9.420;2023-07-24T01:23:56;17.98;;;11.40;;
53269;SDS011;39159;45.634;9.420;2023-07-24T01:26:28;18.08;;;10.93;;
53269;SDS011;39159;45.634;9.420;2023-07-24T01:28:53;16.05;;;11.10;;
53269;SDS011;39159;45.634;9.420;2023-07-24T01:31:19;17.45;;;10.95;;
53269;SDS011;39159;45.634;9.420;2023-07-24T01:33:44;18.65;;;10.98;;
53269;SDS011;39159;45.634;9.420;2023-07-24T01:36:10;19.45;;;12.13;;
53269;SDS011;39159;45.634;9.420;2023-07-24T01:38:38;15.70;;;11.05;;
53269;SDS011;39159;45.634;9.420;2023-07-24T01:41:04;15.63;;;10.40;;
53269;SDS011;39159;45.634;9.420;2023-07-24T01:43:30;17.63;;;11.55;;
53269;SDS011;39159;45.634;9.420;2023-07-24T01:45:57;18.02;;;11.07;;
53269;SDS011;39159;45.634;9.420;2023-07-24T01:48:23;17.15;;;10.18;;
53269;SDS011;39159;45.634;9.420;2023-07-24T01:50:48;18.88;;;10.65;;
53269;SDS011;39159;45.634;9.420;2023-07-24T01:53:15;18.38;;;11.77;;
53269;SDS011;39159;45.634;9.420;2023-07-24T01:55:40;17.80;;;10.63;;
53269;SDS011;39159;45.634;9.420;2023-07-24T01:58:05;19.80;;;11.05;;
53269;SDS011;39159;45.634;9.420;2023-07-24T02:00:31;16.65;;;10.90;;
53269;SDS011;39159;45.634;9.420;2023-07-24T02:02:56;17.13;;;11.02;;
53269;SDS011;39159;45.634;9.420;2023-07-24T02:05:22;19.02;;;11.43;;
53269;SDS011;39159;45.634;9.420;2023-07-24T02:07:47;18.48;;;10.88;;
53269;SDS011;39159;45.634;9.420;2023-07-24T02:10:13;16.70;;;10.88;;
53269;SDS011;39159;45.634;9.420;2023-07-24T02:12:38;18.17;;;11.10;;
53269;SDS011;39159;45.634;9.420;2023-07-24T02:15:04;18.42;;;10.65;;
53269;SDS011;39159;45.634;9.420;2023-07-24T02:17:31;19.45;;;10.60;;
53269;SDS011;39159;45.634;9.420;2023-07-24T02:19:56;18.27;;;11.45;;
53269;SDS011;39159;45.634;9.420;2023-07-24T02:22:21;18.23;;;11.27;;
53269;SDS011;39159;45.634;9.420;2023-07-24T02:24:47;19.58;;;12.00;;
53269;SDS011;39159;45.634;9.420;2023-07-24T02:27:13;20.17;;;11.93;;
53269;SDS011;39159;45.634;9.420;2023-07-24T02:29:49;16.27;;;11.27;;
53269;SDS011;39159;45.634;9.420;2023-07-24T02:32:14;20.58;;;11.32;;
53269;SDS011;39159;45.634;9.420;2023-07-24T02:34:40;17.40;;;11.57;;
53269;SDS011;39159;45.634;9.420;2023-07-24T02:37:05;18.83;;;10.88;;
53269;SDS011;39159;45.634;9.420;2023-07-24T02:39:31;17.63;;;11.32;;
53269;SDS011;39159;45.634;9.420;2023-07-24T02:41:56;16.55;;;11.45;;
53269;SDS011;39159;45.634;9.420;2023-07-24T02:44:21;17.33;;;11.52;;
53269;SDS011;39159;45.634;9.420;2023-07-24T02:46:47;17.90;;;10.88;;
53269;SDS011;39159;45.634;9.420;2023-07-24T02:49:12;18.30;;;10.63;;
53269;SDS011;39159;45.634;9.420;2023-07-24T02:51:38;18.88;;;11.20;;
53269;SDS011;39159;45.634;9.420;2023-07-24T02:54:03;16.25;;;10.95;;
53269;SDS011;39159;45.634;9.420;2023-07-24T02:56:29;16.73;;;10.77;;
53269;SDS011;39159;45.634;9.420;2023-07-24T02:58:55;22.00;;;11.70;;
53269;SDS011;39159;45.634;9.420;2023-07-24T03:01:20;17.55;;;11.63;;
53269;SDS011;39159;45.634;9.420;2023-07-24T03:03:46;18.50;;;11.70;;
53269;SDS011;39159;45.634;9.420;2023-07-24T03:06:11;17.20;;;11.65;;
53269;SDS011;39159;45.634;9.420;2023-07-24T03:08:36;18.30;;;12.00;;
53269;SDS011;39159;45.634;9.420;2023-07-24T03:11:04;17.40;;;11.68;;
53269;SDS011;39159;45.634;9.420;2023-07-24T03:13:30;16.20;;;11.23;;
53269;SDS011;39159;45.634;9.420;2023-07-24T03:15:56;15.95;;;11.35;;
53269;SDS011;39159;45.634;9.420;2023-07-24T03:18:23;14.73;;;10.73;;
53269;SDS011;39159;45.634;9.420;2023-07-24T03:20:49;18.23;;;11.15;;
53269;SDS011;39159;45.634;9.420;2023-07-24T03:23:15;17.80;;;11.63;;
53269;SDS011;39159;45.634;9.420;2023-07-24T03:25:40;18.80;;;11.55;;
53269;SDS011;39159;45.634;9.420;2023-07-24T03:28:06;20.27;;;11.48;;
53269;SDS011;39159;45.634;9.420;2023-07-24T03:30:31;18.73;;;11.93;;
53269;SDS011;39159;45.634;9.420;2023-07-24T03:32:57;18.98;;;10.82;;
53269;SDS011;39159;45.634;9.420;2023-07-24T03:35:23;20.33;;;12.05;;
53269;SDS011;39159;45.634;9.420;2023-07-24T03:37:49;17.38;;;11.63;;
53269;SDS011;39159;45.634;9.420;2023-07-24T03:40:14;15.70;;;10.98;;
53269;SDS011;39159;45.634;9.420;2023-07-24T03:42:40;14.98;;;10.27;;
53269;SDS011;39159;45.634;9.420;2023-07-24T03:45:06;17.60;;;11.52;;
53269;SDS011;39159;45.634;9.420;2023-07-24T03:47:33;18.08;;;11.20;;
53269;SDS011;39159;45.634;9.420;2023-07-24T03:49:58;20.60;;;11.45;;
53269;SDS011;39159;45.634;9.420;2023-07-24T03:52:24;18.08;;;10.88;;
53269;SDS011;39159;45.634;9.420;2023-07-24T03:54:50;16.85;;;11.35;;
53269;SDS011;39159;45.634;9.420;2023-07-24T03:57:18;19.77;;;12.20;;
53269;SDS011;39159;45.634;9.420;2023-07-24T03:59:44;17.98;;;11.70;;
53269;SDS011;39159;45.634;9.420;2023-07-24T04:02:09;17.70;;;11.15;;
53269;SDS011;39159;45.634;9.420;2023-07-24T04:04:35;18.73;;;11.43;;
53269;SDS011;39159;45.634;9.420;2023-07-24T04:07:01;20.65;;;12.10;;
53269;SDS011;39159;45.634;9.420;2023-07-24T04:09:26;23.83;;;12.32;;
53269;SDS011;39159;45.634;9.420;2023-07-24T04:11:52;17.90;;;11.90;;
53269;SDS011;39159;45.634;9.420;2023-07-24T04:14:17;18.65;;;11.57;;
53269;SDS011;39159;45.634;9.420;2023-07-24T04:16:43;16.30;;;11.13;;
53269;SDS011;39159;45.634;9.420;2023-07-24T04:19:09;18.75;;;11.73;;
53269;SDS011;39159;45.634;9.420;2023-07-24T04:21:35;22.50;;;11.82;;
53269;SDS011;39159;45.634;9.420;2023-07-24T04:24:00;17.05;;;10.88;;
53269;SDS011;39159;45.634;9.420;2023-07-24T04:26:26;18.40;;;11.00;;
53269;SDS011;39159;45.634;9.420;2023-07-24T04:28:51;18.65;;;10.80;;
53269;SDS011;39159;45.634;9.420;2023-07-24T04:31:17;16.75;;;11.35;;
53269;SDS011;39159;45.634;9.420;2023-07-24T04:33:42;18.50;;;11.23;;
53269;SDS011;39159;45.634;9.420;2023-07-24T04:36:07;17.13;;;11.00;;
53269;SDS011;39159;45.634;9.420;2023-07-24T04:38:33;19.73;;;11.98;;
53269;SDS011;39159;45.634;9.420;2023-07-24T04:41:02;18.95;;;12.07;;
53269;SDS011;39159;45.634;9.420;2023-07-24T04:43:28;18.55;;;10.90;;
53269;SDS011;39159;45.634;9.420;2023-07-24T04:45:54;19.38;;;11.77;;
53269;SDS011;39159;45.634;9.420;2023-07-24T04:48:19;19.90;;;11.20;;
53269;SDS011;39159;45.634;9.420;2023-07-24T04:50:45;22.45;;;12.52;;
53269;SDS011;39159;45.634;9.420;2023-07-24T04:53:11;15.88;;;10.43;;
53269;SDS011;39159;45.634;9.420;2023-07-24T04:55:36;17.48;;;11.15;;
53269;SDS011;39159;45.634;9.420;2023-07-24T04:58:02;16.70;;;10.88;;
53269;SDS011;39159;45.634;9.420;2023-07-24T05:00:27;21.13;;;11.75;;
53269;SDS011;39159;45.634;9.420;2023-07-24T05:02:53;49.35;;;13.40;;
53269;SDS011;39159;45.634;9.420;2023-07-24T05:05:18;22.73;;;11.18;;
53269;SDS011;39159;45.634;9.420;2023-07-24T05:07:44;19.38;;;11.30;;
53269;SDS011;39159;45.634;9.420;2023-07-24T05:10:09;21.30;;;11.85;;
53269;SDS011;39159;45.634;9.420;2023-07-24T05:12:35;24.63;;;13.40;;
53269;SDS011;39159;45.634;9.420;2023-07-24T05:15:00;18.92;;;12.15;;
53269;SDS011;39159;45.634;9.420;2023-07-24T05:17:25;21.60;;;12.30;;
53269;SDS011;39159;45.634;9.420;2023-07-24T05:19:51;25.35;;;13.07;;
53269;SDS011;39159;45.634;9.420;2023-07-24T05:22:16;20.98;;;12.43;;
53269;SDS011;39159;45.634;9.420;2023-07-24T05:24:42;22.08;;;12.90;;
53269;SDS011;39159;45.634;9.420;2023-07-24T05:27:07;24.40;;;12.77;;
53269;SDS011;39159;45.634;9.420;2023-07-24T05:29:33;24.83;;;12.55;;
53269;SDS011;39159;45.634;9.420;2023-07-24T05:31:58;22.77;;;12.57;;
53269;SDS011;39159;45.634;9.420;2023-07-24T05:34:24;22.48;;;13.52;;
53269;SDS011;39159;45.634;9.420;2023-07-24T05:36:49;28.10;;;13.50;;
53269;SDS011;39159;45.634;9.420;2023-07-24T05:39:15;22.30;;;13.38;;
53269;SDS011;39159;45.634;9.420;2023-07-24T05:41:40;19.63;;;12.65;;
53269;SDS011;39159;45.634;9.420;2023-07-24T05:44:06;24.48;;;13.15;;
53269;SDS011;39159;45.634;9.420;2023-07-24T05:46:31;17.85;;;11.82;;
53269;SDS011;39159;45.634;9.420;2023-07-24T05:48:57;24.45;;;12.15;;
53269;SDS011;39159;45.634;9.420;2023-07-24T05:51:22;25.25;;;13.43;;
53269;SDS011;39159;45.634;9.420;2023-07-24T05:53:48;22.58;;;12.95;;
53269;SDS011;39159;45.634;9.420;2023-07-24T05:56:13;21.48;;;13.23;;
53269;SDS011;39159;45.634;9.420;2023-07-24T05:58:39;21.80;;;12.65;;
53269;SDS011;39159;45.634;9.420;2023-07-24T06:01:04;24.85;;;13.63;;
53269;SDS011;39159;45.634;9.420;2023-07-24T06:03:32;20.63;;;12.50;;
53269;SDS011;39159;45.634;9.420;2023-07-24T06:05:58;22.45;;;12.60;;
53269;SDS011;39159;45.634;9.420;2023-07-24T06:08:23;23.40;;;13.20;;
53269;SDS011;39159;45.634;9.420;2023-07-24T06:10:49;19.92;;;12.52;;
53269;SDS011;39159;45.634;9.420;2023-07-24T06:13:16;23.77;;;13.18;;
53269;SDS011;39159;45.634;9.420;2023-07-24T06:15:42;20.05;;;12.05;;
53269;SDS011;39159;45.634;9.420;2023-07-24T06:18:08;21.80;;;12.48;;
53269;SDS011;39159;45.634;9.420;2023-07-24T06:20:33;22.42;;;12.40;;
53269;SDS011;39159;45.634;9.420;2023-07-24T06:22:59;22.23;;;13.48;;
53269;SDS011;39159;45.634;9.420;2023-07-24T06:25:24;20.55;;;12.25;;
53269;SDS011;39159;45.634;9.420;2023-07-24T06:27:50;23.45;;;12.98;;
53269;SDS011;39159;45.634;9.420;2023-07-24T06:30:15;17.45;;;11.82;;
53269;SDS011;39159;45.634;9.420;2023-07-24T06:32:41;21.77;;;12.35;;
53269;SDS011;39159;45.634;9.420;2023-07-24T06:35:06;16.27;;;11.20;;
53269;SDS011;39159;45.634;9.420;2023-07-24T06:37:32;17.05;;;11.30;;
53269;SDS011;39159;45.634;9.420;2023-07-24T06:39:57;17.52;;;11.80;;
53269;SDS011;39159;45.634;9.420;2023-07-24T06:42:23;17.67;;;11.68;;
53269;SDS011;39159;45.634;9.420;2023-07-24T06:44:48;19.60;;;13.07;;
53269;SDS011;39159;45.634;9.420;2023-07-24T06:47:14;22.08;;;11.80;;
53269;SDS011;39159;45.634;9.420;2023-07-24T06:49:39;19.38;;;12.88;;
53269;SDS011;39159;45.634;9.420;2023-07-24T06:52:05;20.08;;;12.20;;
53269;SDS011;39159;45.634;9.420;2023-07-24T06:54:30;19.23;;;11.50;;
53269;SDS011;39159;45.634;9.420;2023-07-24T06:56:56;19.10;;;11.98;;
53269;SDS011;39159;45.634;9.420;2023-07-24T06:59:22;17.23;;;11.18;;
53269;SDS011;39159;45.634;9.420;2023-07-24T07:01:48;18.10;;;10.88;;
53269;SDS011;39159;45.634;9.420;2023-07-24T07:04:13;19.70;;;10.82;;
53269;SDS011;39159;45.634;9.420;2023-07-24T07:06:39;20.77;;;11.05;;
53269;SDS011;39159;45.634;9.420;2023-07-24T07:09:04;17.13;;;11.40;;
53269;SDS011;39159;45.634;9.420;2023-07-24T07:11:30;16.52;;;11.27;;
53269;SDS011;39159;45.634;9.420;2023-07-24T07:13:55;17.27;;;10.73;;
53269;SDS011;39159;45.634;9.420;2023-07-24T07:16:21;16.13;;;11.23;;
53269;SDS011;39159;45.634;9.420;2023-07-24T07:18:46;16.85;;;10.93;;
53269;SDS011;39159;45.634;9.420;2023-07-24T07:21:12;19.05;;;10.85;;
53269;SDS011;39159;45.634;9.420;2023-07-24T07:23:37;14.52;;;9.95;;
53269;SDS011;39159;45.634;9.420;2023-07-24T07:26:03;22.90;;;11.75;;
53269;SDS011;39159;45.634;9.420;2023-07-24T07:28:28;23.45;;;14.50;;
53269;SDS011;39159;45.634;9.420;2023-07-24T07:30:54;18.40;;;11.88;;
53269;SDS011;39159;45.634;9.420;2023-07-24T07:33:19;22.35;;;10.63;;
53269;SDS011;39159;45.634;9.420;2023-07-24T07:35:47;18.40;;;10.68;;
53269;SDS011;39159;45.634;9.420;2023-07-24T07:38:12;17.05;;;10.10;;
53269;SDS011;39159;45.634;9.420;2023-07-24T07:40:38;23.23;;;12.48;;
53269;SDS011;39159;45.634;9.420;2023-07-24T07:43:06;29.35;;;14.23;;
53269;SDS011;39159;45.634;9.420;2023-07-24T07:45:32;26.60;;;13.52;;
53269;SDS011;39159;45.634;9.420;2023-07-24T07:47:58;27.20;;;12.90;;
53269;SDS011;39159;45.634;9.420;2023-07-24T07:50:23;33.45;;;14.55;;
53269;SDS011;39159;45.634;9.420;2023-07-24T07:52:49;30.85;;;15.15;;
53269;SDS011;39159;45.634;9.420;2023-07-24T07:55:16;27.23;;;13.75;;
53269;SDS011;39159;45.634;9.420;2023-07-24T07:57:42;21.85;;;14.02;;
53269;SDS011;39159;45.634;9.420;2023-07-24T08:00:08;24.52;;;14.57;;
53269;SDS011;39159;45.634;9.420;2023-07-24T08:02:34;27.27;;;15.30;;
53269;SDS011;39159;45.634;9.420;2023-07-24T08:04:59;22.05;;;13.68;;
53269;SDS011;39159;45.634;9.420;2023-07-24T08:07:25;24.45;;;13.10;;
53269;SDS011;39159;45.634;9.420;2023-07-24T08:09:50;22.13;;;12.63;;
53269;SDS011;39159;45.634;9.420;2023-07-24T08:12:16;20.30;;;12.35;;
53269;SDS011;39159;45.634;9.420;2023-07-24T08:14:41;22.95;;;12.85;;
53269;SDS011;39159;45.634;9.420;2023-07-24T08:17:07;19.95;;;12.70;;
53269;SDS011;39159;45.634;9.420;2023-07-24T08:19:33;21.77;;;13.82;;
53269;SDS011;39159;45.634;9.420;2023-07-24T08:21:58;22.38;;;13.55;;
53269;SDS011;39159;45.634;9.420;2023-07-24T08:24:24;24.55;;;13.05;;
53269;SDS011;39159;45.634;9.420;2023-07-24T08:26:49;24.88;;;14.35;;
53269;SDS011;39159;45.634;9.420;2023-07-24T08:29:15;26.60;;;14.57;;
53269;SDS011;39159;45.634;9.420;2023-07-24T08:31:40;26.67;;;15.02;;
53269;SDS011;39159;45.634;9.420;2023-07-24T08:34:06;24.75;;;15.13;;
53269;SDS011;39159;45.634;9.420;2023-07-24T08:36:31;29.00;;;16.58;;
53269;SDS011;39159;45.634;9.420;2023-07-24T08:38:57;25.10;;;15.48;;
53269;SDS011;39159;45.634;9.420;2023-07-24T08:41:22;24.95;;;15.77;;
53269;SDS011;39159;45.634;9.420;2023-07-24T08:43:48;29.35;;;15.68;;
53269;SDS011;39159;45.634;9.420;2023-07-24T08:46:16;28.83;;;17.40;;
53269;SDS011;39159;45.634;9.420;2023-07-24T08:48:43;27.98;;;16.90;;
53269;SDS011;39159;45.634;9.420;2023-07-24T08:51:09;24.10;;;15.15;;
53269;SDS011;39159;45.634;9.420;2023-07-24T08:53:37;22.73;;;14.70;;
53269;SDS011;39159;45.634;9.420;2023-07-24T08:56:04;24.27;;;15.10;;
53269;SDS011;39159;45.634;9.420;2023-07-24T08:58:31;22.65;;;13.75;;
53269;SDS011;39159;45.634;9.420;2023-07-24T09:00:57;24.52;;;14.88;;
53269;SDS011;39159;45.634;9.420;2023-07-24T09:03:24;23.63;;;13.85;;
53269;SDS011;39159;45.634;9.420;2023-07-24T09:05:49;25.85;;;14.43;;
53269;SDS011;39159;45.634;9.420;2023-07-24T09:08:15;24.58;;;14.30;;
53269;SDS011;39159;45.634;9.420;2023-07-24T09:10:41;21.92;;;14.35;;
53269;SDS011;39159;45.634;9.420;2023-07-24T09:13:06;24.40;;;13.68;;
53269;SDS011;39159;45.634;9.420;2023-07-24T09:15:42;23.88;;;13.40;;
53269;SDS011;39159;45.634;9.420;2023-07-24T09:18:08;22.00;;;13.85;;
53269;SDS011;39159;45.634;9.420;2023-07-24T09:20:41;22.25;;;13.27;;
53269;SDS011;39159;45.634;9.420;2023-07-24T09:23:08;20.58;;;13.75;;
53269;SDS011;39159;45.634;9.420;2023-07-24T09:25:35;18.17;;;12.63;;
53269;SDS011;39159;45.634;9.420;2023-07-24T09:28:14;22.42;;;12.45;;
53269;SDS011;39159;45.634;9.420;2023-07-24T09:30:41;26.55;;;14.05;;
53269;SDS011;39159;45.634;9.420;2023-07-24T09:33:16;27.60;;;14.90;;
53269;SDS011;39159;45.634;9.420;2023-07-24T09:35:41;27.27;;;14.50;;
53269;SDS011;39159;45.634;9.420;2023-07-24T09:38:08;18.90;;;12.77;;
53269;SDS011;39159;45.634;9.420;2023-07-24T09:40:38;21.27;;;14.05;;
53269;SDS011;39159;45.634;9.420;2023-07-24T09:43:21;30.20;;;15.70;;
53269;SDS011;39159;45.634;9.420;2023-07-24T09:45:51;22.98;;;13.18;;
53269;SDS011;39159;45.634;9.420;2023-07-24T09:48:18;28.42;;;15.85;;
53269;SDS011;39159;45.634;9.420;2023-07-24T09:50:46;28.95;;;14.38;;
53269;SDS011;39159;45.634;9.420;2023-07-24T09:53:29;19.73;;;12.85;;
53269;SDS011;39159;45.634;9.420;2023-07-24T09:55:57;20.20;;;12.90;;
53269;SDS011;39159;45.634;9.420;2023-07-24T09:58:27;25.27;;;14.00;;
53269;SDS011;39159;45.634;9.420;2023-07-24T10:00:54;26.08;;;14.25;;
53269;SDS011;39159;45.634;9.420;2023-07-24T10:03:21;21.55;;;13.05;;
53269;SDS011;39159;45.634;9.420;2023-07-24T10:05:47;17.95;;;11.30;;
53269;SDS011;39159;45.634;9.420;2023-07-24T10:08:14;21.48;;;12.60;;
53269;SDS011;39159;45.634;9.420;2023-07-24T10:10:41;23.52;;;12.70;;
53269;SDS011;39159;45.634;9.420;2023-07-24T10:13:07;17.90;;;11.82;;
53269;SDS011;39159;45.634;9.420;2023-07-24T10:15:36;18.77;;;11.50;;
53269;SDS011;39159;45.634;9.420;2023-07-24T10:18:03;19.10;;;12.10;;
53269;SDS011;39159;45.634;9.420;2023-07-24T10:20:33;24.23;;;12.25;;
53269;SDS011;39159;45.634;9.420;2023-07-24T10:23:03;26.98;;;12.73;;
53269;SDS011;39159;45.634;9.420;2023-07-24T10:25:32;24.20;;;12.45;;
53269;SDS011;39159;45.634;9.420;2023-07-24T10:28:04;19.98;;;12.70;;
53269;SDS011;39159;45.634;9.420;2023-07-24T10:30:35;22.85;;;12.43;;
53269;SDS011;39159;45.634;9.420;2023-07-24T10:33:09;18.02;;;12.07;;
53269;SDS011;39159;45.634;9.420;2023-07-24T10:35:40;18.50;;;11.45;;
53269;SDS011;39159;45.634;9.420;2023-07-24T10:38:07;24.05;;;11.98;;
53269;SDS011;39159;45.634;9.420;2023-07-24T10:40:33;19.67;;;12.40;;
53269;SDS011;39159;45.634;9.420;2023-07-24T10:43:08;17.90;;;11.95;;
53269;SDS011;39159;45.634;9.420;2023-07-24T10:45:39;18.35;;;11.90;;
53269;SDS011;39159;45.634;9.420;2023-07-24T10:48:13;19.02;;;12.35;;
53269;SDS011;39159;45.634;9.420;2023-07-24T10:50:42;21.02;;;12.10;;
53269;SDS011;39159;45.634;9.420;2023-07-24T10:53:10;23.02;;;12.98;;
53269;SDS011;39159;45.634;9.420;2023-07-24T10:55:36;18.73;;;11.55;;
53269;SDS011;39159;45.634;9.420;2023-07-24T10:58:02;20.15;;;12.70;;
53269;SDS011;39159;45.634;9.420;2023-07-24T11:00:27;22.40;;;12.43;;
53269;SDS011;39159;45.634;9.420;2023-07-24T11:02:53;22.88;;;12.68;;
53269;SDS011;39159;45.634;9.420;2023-07-24T11:05:23;20.20;;;12.10;;
53269;SDS011;39159;45.634;9.420;2023-07-24T11:07:49;21.50;;;12.38;;
53269;SDS011;39159;45.634;9.420;2023-07-24T11:10:18;20.17;;;12.30;;
53269;SDS011;39159;45.634;9.420;2023-07-24T11:12:44;19.38;;;11.20;;
53269;SDS011;39159;45.634;9.420;2023-07-24T11:15:10;18.33;;;11.82;;
53269;SDS011;39159;45.634;9.420;2023-07-24T11:17:37;18.70;;;11.88;;
53269;SDS011;39159;45.634;9.420;2023-07-24T11:20:12;18.25;;;11.65;;
53269;SDS011;39159;45.634;9.420;2023-07-24T11:22:39;18.45;;;11.68;;
53269;SDS011;39159;45.634;9.420;2023-07-24T11:25:06;17.10;;;10.63;;
53269;SDS011;39159;45.634;9.420;2023-07-24T11:27:32;17.15;;;10.52;;
53269;SDS011;39159;45.634;9.420;2023-07-24T11:29:58;16.60;;;10.02;;
53269;SDS011;39159;45.634;9.420;2023-07-24T11:32:24;18.38;;;10.70;;
53269;SDS011;39159;45.634;9.420;2023-07-24T11:34:50;16.38;;;10.10;;
53269;SDS011;39159;45.634;9.420;2023-07-24T11:37:16;15.38;;;9.75;;
53269;SDS011;39159;45.634;9.420;2023-07-24T11:39:43;15.20;;;9.45;;
53269;SDS011;39159;45.634;9.420;2023-07-24T11:42:20;15.73;;;9.18;;
53269;SDS011;39159;45.634;9.420;2023-07-24T11:44:45;16.52;;;10.05;;
53269;SDS011;39159;45.634;9.420;2023-07-24T11:47:11;17.20;;;9.13;;
53269;SDS011;39159;45.634;9.420;2023-07-24T11:49:36;16.73;;;9.82;;
53269;SDS011;39159;45.634;9.420;2023-07-24T11:52:05;15.43;;;9.77;;
53269;SDS011;39159;45.634;9.420;2023-07-24T11:54:34;21.80;;;11.30;;
53269;SDS011;39159;45.634;9.420;2023-07-24T11:57:00;17.17;;;10.32;;
53269;SDS011;39159;45.634;9.420;2023-07-24T11:59:26;17.92;;;10.90;;
53269;SDS011;39159;45.634;9.420;2023-07-24T12:01:52;20.88;;;10.25;;
53269;SDS011;39159;45.634;9.420;2023-07-24T14:13:41;14.10;;;9.10;;
53269;SDS011;39159;45.634;9.420;2023-07-24T14:16:06;13.80;;;8.85;;
53269;SDS011;39159;45.634;9.420;2023-07-24T14:18:32;15.15;;;8.65;;
53269;SDS011;39159;45.634;9.420;2023-07-24T14:20:57;15.05;;;8.85;;
53269;SDS011;39159;45.634;9.420;2023-07-24T14:23:24;14.15;;;9.00;;
53269;SDS011;39159;45.634;9.420;2023-07-24T14:25:49;15.20;;;8.85;;
53269;SDS011;39159;45.634;9.420;2023-07-24T14:28:15;16.60;;;8.65;;
53269;SDS011;39159;45.634;9.420;2023-07-24T14:30:40;18.70;;;8.05;;
53269;SDS011;39159;45.634;9.420;2023-07-24T14:33:06;12.02;;;8.27;;
53269;SDS011;39159;45.634;9.420;2023-07-24T14:35:31;16.58;;;7.90;;
53269;SDS011;39159;45.634;9.420;2023-07-24T14:37:57;16.30;;;8.98;;
53269;SDS011;39159;45.634;9.420;2023-07-24T14:40:22;15.63;;;9.45;;
53269;SDS011;39159;45.634;9.420;2023-07-24T14:42:47;11.43;;;8.10;;
53269;SDS011;39159;45.634;9.420;2023-07-24T14:45:13;13.80;;;8.35;;
53269;SDS011;39159;45.634;9.420;2023-07-24T14:47:38;14.68;;;8.15;;
53269;SDS011;39159;45.634;9.420;2023-07-24T14:50:04;16.27;;;9.50;;
53269;SDS011;39159;45.634;9.420;2023-07-24T14:52:30;14.23;;;8.43;;
53269;SDS011;39159;45.634;9.420;2023-07-24T14:54:55;11.80;;;7.60;;
53269;SDS011;39159;45.634;9.420;2023-07-24T14:57:21;13.52;;;8.77;;
53269;SDS011;39159;45.634;9.420;2023-07-24T14:59:46;16.30;;;9.40;;
53269;SDS011;39159;45.634;9.420;2023-07-24T15:02:12;12.60;;;7.78;;
53269;SDS011;39159;45.634;9.420;2023-07-24T15:04:37;13.82;;;8.40;;
53269;SDS011;39159;45.634;9.420;2023-07-24T15:07:03;16.75;;;8.68;;
53269;SDS011;39159;45.634;9.420;2023-07-24T15:09:29;15.68;;;8.95;;
53269;SDS011;39159;45.634;9.420;2023-07-24T15:11:56;11.20;;;7.93;;
53269;SDS011;39159;45.634;9.420;2023-07-24T15:14:22;11.70;;;8.13;;
53269;SDS011;39159;45.634;9.420;2023-07-24T15:16:47;15.80;;;8.75;;
53269;SDS011;39159;45.634;9.420;2023-07-24T15:19:12;12.88;;;8.45;;
53269;SDS011;39159;45.634;9.420;2023-07-24T15:21:38;12.60;;;8.00;;
53269;SDS011;39159;45.634;9.420;2023-07-24T15:24:03;14.45;;;9.30;;
53269;SDS011;39159;45.634;9.420;2023-07-24T15:26:29;12.65;;;9.15;;
53269;SDS011;39159;45.634;9.420;2023-07-24T15:28:55;18.77;;;8.90;;
53269;SDS011;39159;45.634;9.420;2023-07-24T15:31:21;17.35;;;8.30;;
53269;SDS011;39159;45.634;9.420;2023-07-24T15:33:46;14.57;;;8.77;;
53269;SDS011;39159;45.634;9.420;2023-07-24T15:36:12;12.00;;;7.38;;
53269;SDS011;39159;45.634;9.420;2023-07-24T15:38:37;11.40;;;7.50;;
53269;SDS011;39159;45.634;9.420;2023-07-24T15:41:02;14.77;;;7.78;;
53269;SDS011;39159;45.634;9.420;2023-07-24T15:43:28;10.60;;;6.32;;
53269;SDS011;39159;45.634;9.420;2023-07-24T15:45:53;12.15;;;7.65;;
53269;SDS011;39159;45.634;9.420;2023-07-24T15:48:19;10.13;;;6.72;;
53269;SDS011;39159;45.634;9.420;2023-07-24T15:50:44;13.48;;;7.15;;
53269;SDS011;39159;45.634;9.420;2023-07-24T15:53:10;13.35;;;7.70;;
53269;SDS011;39159;45.634;9.420;2023-07-24T15:55:35;13.45;;;7.57;;
53269;SDS011;39159;45.634;9.420;2023-07-24T15:58:01;14.38;;;7.47;;
53269;SDS011;39159;45.634;9.420;2023-07-24T16:00:26;12.43;;;8.23;;
53269;SDS011;39159;45.634;9.420;2023-07-24T16:02:51;17.00;;;8.90;;
53269;SDS011;39159;45.634;9.420;2023-07-24T16:05:18;18.00;;;9.52;;
53269;SDS011;39159;45.634;9.420;2023-07-24T16:07:45;17.52;;;8.98;;
53269;SDS011;39159;45.634;9.420;2023-07-24T16:10:11;14.63;;;9.02;;
53269;SDS011;39159;45.634;9.420;2023-07-24T16:12:41;17.92;;;9.82;;
53269;SDS011;39159;45.634;9.420;2023-07-24T16:15:07;14.40;;;8.35;;
53269;SDS011;39159;45.634;9.420;2023-07-24T16:17:34;17.70;;;9.65;;
53269;SDS011;39159;45.634;9.420;2023-07-24T16:19:59;13.95;;;9.10;;
53269;SDS011;39159;45.634;9.420;2023-07-24T16:22:25;13.68;;;8.93;;
53269;SDS011;39159;45.634;9.420;2023-07-24T16:24:50;14.48;;;9.27;;
53269;SDS011;39159;45.634;9.420;2023-07-24T16:27:16;16.83;;;8.93;;